createdAt,value
2018-05-25T00:00:55.491Z,70.88
2018-05-25T00:02:04.635Z,70.59
2018-05-25T00:03:13.498Z,70.68
2018-05-25T00:04:22.413Z,70.98
2018-05-25T00:05:31.280Z,70.94
2018-05-25T00:06:40.144Z,72.03
2018-05-25T00:07:49.008Z,71.52
2018-05-25T00:08:57.871Z,71.81
2018-05-25T00:10:07.741Z,70.94
2018-05-25T00:11:16.605Z,71.04
2018-05-25T00:12:25.752Z,71.04
2018-05-25T00:13:34.617Z,71.23
2018-05-25T00:14:43.482Z,71.42
2018-05-25T00:15:52.394Z,71.61
2018-05-25T00:17:01.256Z,72.09
2018-05-25T00:18:10.396Z,72
2018-05-25T00:19:19.256Z,71.52
2018-05-25T00:20:28.116Z,71.61
2018-05-25T00:21:37.029Z,72.58
2018-05-25T00:22:45.892Z,71.87
2018-05-25T00:23:54.755Z,71.61
2018-05-25T00:25:03.620Z,72.58
2018-05-25T00:26:12.759Z,73.41
2018-05-25T00:27:21.625Z,73.6
2018-05-25T00:28:30.768Z,72.64
2018-05-25T00:29:39.907Z,73.31
2018-05-25T00:30:49.042Z,72.16
2018-05-25T00:31:58.183Z,73.11
2018-05-25T00:33:07.145Z,73.02
2018-05-25T00:34:16.008Z,73.41
2018-05-25T00:35:25.147Z,73.41
2018-05-25T00:36:34.005Z,73.5
2018-05-25T00:37:42.868Z,73.02
2018-05-25T00:38:52.060Z,73.5
2018-05-25T00:40:00.922Z,73.41
2018-05-25T00:41:09.785Z,74.08
2018-05-25T00:42:18.648Z,74.52
2018-05-25T00:43:27.509Z,74.33
2018-05-25T00:44:36.648Z,73.94
2018-05-25T00:45:45.510Z,74.62
2018-05-25T00:46:54.378Z,74.71
2018-05-25T00:48:03.231Z,74.43
2018-05-25T00:49:12.095Z,74.81
2018-05-25T00:50:21.119Z,74.13
2018-05-25T00:51:30.274Z,74.55
2018-05-25T00:52:39.137Z,74.52
2018-05-25T00:53:48.563Z,74.62
2018-05-25T00:54:57.700Z,74.81
2018-05-25T00:56:06.837Z,74.52
2018-05-25T00:57:15.699Z,75
2018-05-25T00:58:24.562Z,74.9
2018-05-25T00:59:33.424Z,74.52
2018-05-25T01:00:42.290Z,74.52
2018-05-25T01:01:51.153Z,75.48
2018-05-25T01:03:00.289Z,74.81
2018-05-25T01:04:09.430Z,75.29
2018-05-25T01:05:18.296Z,74.71
2018-05-25T01:06:27.436Z,75.29
2018-05-25T01:07:36.923Z,75.1
2018-05-25T01:08:45.801Z,75.38
2018-05-25T01:09:54.939Z,75.67
2018-05-25T01:11:04.380Z,75.63
2018-05-25T01:12:13.239Z,75.63
2018-05-25T01:13:22.733Z,76.4
2018-05-25T01:14:31.873Z,75.92
2018-05-25T01:15:40.738Z,75.73
2018-05-25T01:16:49.608Z,76.79
2018-05-25T01:17:58.464Z,76.88
2018-05-25T01:19:08.038Z,75.15
2018-05-25T01:20:16.901Z,75.82
2018-05-25T01:21:25.766Z,75.73
2018-05-25T01:22:34.907Z,76.5
2018-05-25T01:23:43.770Z,75.25
2018-05-25T01:24:53.014Z,75.48
2018-05-25T01:26:01.876Z,75.35
2018-05-25T01:27:11.015Z,75.57
2018-05-25T01:28:19.880Z,76.5
2018-05-25T01:29:28.740Z,77.08
2018-05-25T01:30:37.652Z,76.59
2018-05-25T01:31:46.791Z,75.73
2018-05-25T01:32:55.654Z,76.69
2018-05-25T01:34:04.617Z,76.02
2018-05-25T01:35:13.481Z,76.5
2018-05-25T01:36:22.496Z,76.5
2018-05-25T01:37:31.634Z,76.59
2018-05-25T01:38:40.771Z,76.69
2018-05-25T01:39:50.188Z,76.88
2018-05-25T01:40:59.048Z,77.65
2018-05-25T01:42:08.343Z,76.98
2018-05-25T01:43:17.207Z,76.98
2018-05-25T01:44:26.067Z,77.08
2018-05-25T01:45:34.933Z,77.56
2018-05-25T01:46:43.791Z,77.46
2018-05-25T01:47:52.656Z,77.56
2018-05-25T01:49:01.798Z,77.65
2018-05-25T01:50:10.934Z,77.71
2018-05-25T01:51:20.073Z,77.36
2018-05-25T01:52:29.491Z,77.56
2018-05-25T01:53:38.509Z,78.61
2018-05-25T01:54:47.371Z,78.67
2018-05-25T01:55:56.233Z,78.86
2018-05-25T01:57:05.097Z,78.57
2018-05-25T01:58:14.250Z,78.86
2018-05-25T01:59:23.384Z,79.05
2018-05-25T02:00:32.248Z,79.14
2018-05-25T02:01:41.115Z,79.14
2018-05-25T02:02:49.977Z,80.2
2018-05-25T02:03:58.837Z,79.34
2018-05-25T02:05:07.700Z,79.34
2018-05-25T02:06:16.561Z,79.44
2018-05-25T02:07:25.423Z,79.53
2018-05-25T02:08:34.287Z,79.05
2018-05-25T02:09:43.701Z,79.34
2018-05-25T02:10:52.999Z,79.82
2018-05-25T02:12:01.864Z,79.53
2018-05-25T02:13:11.003Z,79.91
2018-05-25T02:14:19.862Z,80.2
2018-05-25T02:15:28.722Z,80.3
2018-05-25T02:16:37.633Z,80.58
2018-05-25T02:17:46.783Z,79.97
2018-05-25T02:18:55.644Z,80.55
2018-05-25T02:20:04.792Z,80.26
2018-05-25T02:21:13.656Z,80.93
2018-05-25T02:22:22.669Z,80.64
2018-05-25T02:23:31.532Z,80.45
2018-05-25T02:24:40.391Z,80.26
2018-05-25T02:25:49.256Z,80.07
2018-05-25T02:26:58.672Z,80.16
2018-05-25T02:28:07.539Z,79.82
2018-05-25T02:29:16.400Z,80.55
2018-05-25T02:30:25.537Z,80.45
2018-05-25T02:31:34.401Z,80.45
2018-05-25T02:32:43.263Z,81.12
2018-05-25T02:33:52.231Z,80.16
2018-05-25T02:35:01.100Z,80.16
2018-05-25T02:36:09.962Z,80.93
2018-05-25T02:37:19.103Z,80.64
2018-05-25T02:38:27.968Z,81.02
2018-05-25T02:39:36.947Z,81.6
2018-05-25T02:40:46.084Z,81.7
2018-05-25T02:41:55.235Z,81.79
2018-05-25T02:43:04.100Z,81.89
2018-05-25T02:44:12.963Z,82.18
2018-05-25T02:45:21.873Z,81.31
2018-05-25T02:46:31.011Z,81.02
2018-05-25T02:47:39.875Z,80.74
2018-05-25T02:48:48.945Z,80.93
2018-05-25T02:49:58.078Z,81.89
2018-05-25T02:51:07.102Z,81.37
2018-05-25T02:52:16.531Z,81.41
2018-05-25T02:53:25.677Z,81.89
2018-05-25T02:54:34.818Z,81.98
2018-05-25T02:55:43.689Z,82.65
2018-05-25T02:56:52.830Z,82.14
2018-05-25T02:58:01.982Z,82.42
2018-05-25T02:59:10.846Z,82.9
2018-05-25T03:00:19.997Z,83.09
2018-05-25T03:01:28.857Z,83.38
2018-05-25T03:02:38.348Z,82.81
2018-05-25T03:03:47.211Z,82.9
2018-05-25T03:04:56.071Z,83.19
2018-05-25T03:06:05.514Z,83.67
2018-05-25T03:07:14.947Z,83.58
2018-05-25T03:08:24.086Z,83.67
2018-05-25T03:09:32.949Z,83.29
2018-05-25T03:10:41.813Z,83.67
2018-05-25T03:11:50.954Z,83.38
2018-05-25T03:13:00.095Z,83.09
2018-05-25T03:14:09.012Z,83.86
2018-05-25T03:15:17.874Z,83.19
2018-05-25T03:16:27.012Z,83.67
2018-05-25T03:17:35.875Z,84.05
2018-05-25T03:18:44.738Z,84.05
2018-05-25T03:19:53.877Z,83.67
2018-05-25T03:21:03.017Z,83.76
2018-05-25T03:22:11.878Z,83.58
2018-05-25T03:23:20.740Z,84.05
2018-05-25T03:24:29.599Z,84.15
2018-05-25T03:25:38.564Z,84.44
2018-05-25T03:26:47.699Z,83.95
2018-05-25T03:27:56.559Z,84.25
2018-05-25T03:29:05.699Z,84.53
2018-05-25T03:30:14.558Z,84.44
2018-05-25T03:31:23.534Z,84.91
2018-05-25T03:32:32.956Z,84.82
2018-05-25T03:33:41.816Z,85.11
2018-05-25T03:34:50.687Z,85.01
2018-05-25T03:35:59.543Z,84.82
2018-05-25T03:37:08.455Z,85.01
2018-05-25T03:38:17.317Z,84.34
2018-05-25T03:39:26.180Z,84.34
2018-05-25T03:40:35.046Z,84.34
2018-05-25T03:41:44.190Z,83.86
2018-05-25T03:42:53.051Z,84.05
2018-05-25T03:44:01.910Z,84.34
2018-05-25T03:45:10.772Z,84.63
2018-05-25T03:46:19.634Z,84.53
2018-05-25T03:47:28.498Z,84.91
2018-05-25T03:48:37.710Z,85.21
2018-05-25T03:49:46.573Z,85.11
2018-05-25T03:50:55.435Z,84.82
2018-05-25T03:52:04.578Z,85.39
2018-05-25T03:53:13.441Z,85.21
2018-05-25T03:54:22.508Z,86.25
2018-05-25T03:55:31.695Z,85.88
2018-05-25T03:56:40.832Z,85.68
2018-05-25T03:57:49.694Z,85.78
2018-05-25T03:58:58.554Z,85.78
2018-05-25T04:00:07.619Z,85.21
2018-05-25T04:01:16.481Z,85.78
2018-05-25T04:02:25.345Z,85.58
2018-05-25T04:03:34.207Z,85.78
2018-05-25T04:04:43.068Z,85.78
2018-05-25T04:05:52.357Z,86.25
2018-05-25T04:07:01.218Z,86.45
2018-05-25T04:08:10.373Z,86.16
2018-05-25T04:09:19.513Z,86.16
2018-05-25T04:10:28.375Z,86.41
2018-05-25T04:11:37.438Z,86.25
2018-05-25T04:12:46.307Z,86.45
2018-05-25T04:13:55.449Z,87.02
2018-05-25T04:15:04.313Z,87.02
2018-05-25T04:16:13.223Z,86.83
2018-05-25T04:17:22.515Z,87.02
2018-05-25T04:18:31.375Z,86.35
2018-05-25T04:19:40.239Z,86.45
2018-05-25T04:20:49.101Z,86.64
2018-05-25T04:21:57.963Z,86.45
2018-05-25T04:23:06.823Z,86.93
2018-05-25T04:24:15.684Z,86.45
2018-05-25T04:25:24.553Z,86.64
2018-05-25T04:26:33.415Z,85.49
2018-05-25T04:27:42.280Z,86.45
2018-05-25T04:28:51.572Z,86.25
2018-05-25T04:30:00.433Z,85.78
2018-05-25T04:31:09.296Z,86.83
2018-05-25T04:32:18.157Z,86.45
2018-05-25T04:33:27.021Z,85.68
2018-05-25T04:34:36.160Z,86.93
2018-05-25T04:35:45.023Z,86.93
2018-05-25T04:36:53.890Z,85.97
2018-05-25T04:38:03.307Z,86.35
2018-05-25T04:39:12.170Z,86.35
2018-05-25T04:40:21.471Z,86.83
2018-05-25T04:41:30.610Z,86.45
2018-05-25T04:42:39.476Z,86.93
2018-05-25T04:43:48.613Z,87.12
2018-05-25T04:44:57.751Z,86.83
2018-05-25T04:46:06.964Z,86.83
2018-05-25T04:47:15.832Z,87.02
2018-05-25T04:48:24.699Z,86.83
2018-05-25T04:49:33.562Z,87.02
2018-05-25T04:50:42.422Z,87.02
2018-05-25T04:51:51.336Z,87.02
2018-05-25T04:53:00.476Z,87.21
2018-05-25T04:54:09.660Z,87.21
2018-05-25T04:55:18.522Z,87.21
2018-05-25T04:56:27.381Z,87.21
2018-05-25T04:57:36.576Z,87.31
2018-05-25T04:58:45.447Z,86.93
2018-05-25T04:59:54.585Z,87.21
2018-05-25T05:01:03.458Z,87.02
2018-05-25T05:02:12.596Z,87.5
2018-05-25T05:03:21.557Z,87.79
2018-05-25T05:04:30.417Z,87.21
2018-05-25T05:05:39.280Z,87.21
2018-05-25T05:06:48.141Z,86.93
2018-05-25T05:07:57.002Z,86.93
2018-05-25T05:09:05.961Z,86.83
2018-05-25T05:10:14.826Z,86.88
2018-05-25T05:11:23.689Z,86.68
2018-05-25T05:12:32.549Z,86.93
2018-05-25T05:13:41.688Z,87.5
2018-05-25T05:14:50.841Z,86.83
2018-05-25T05:15:59.673Z,86.93
2018-05-25T05:17:08.808Z,86.68
2018-05-25T05:18:17.673Z,86.49
2018-05-25T05:19:26.530Z,87.07
2018-05-25T05:20:35.545Z,86.4
2018-05-25T05:21:44.418Z,87.16
2018-05-25T05:22:53.281Z,87.07
2018-05-25T05:24:02.430Z,87.07
2018-05-25T05:25:11.583Z,87.16
2018-05-25T05:26:21.107Z,87.07
2018-05-25T05:27:30.248Z,86.97
2018-05-25T05:28:39.110Z,87.16
2018-05-25T05:29:47.974Z,87.16
2018-05-25T05:30:56.841Z,86.88
2018-05-25T05:32:05.987Z,86.68
2018-05-25T05:33:14.868Z,86.49
2018-05-25T05:34:23.714Z,86.97
2018-05-25T05:35:32.852Z,86.88
2018-05-25T05:36:41.999Z,86.97
2018-05-25T05:37:51.015Z,86.58
2018-05-25T05:38:59.874Z,86.68
2018-05-25T05:40:09.016Z,86.68
2018-05-25T05:41:17.880Z,87.16
2018-05-25T05:42:26.745Z,86.92
2018-05-25T05:43:36.792Z,86.44
2018-05-25T05:44:45.942Z,85.96
2018-05-25T05:45:54.805Z,86.05
2018-05-25T05:47:03.948Z,85.77
2018-05-25T05:48:12.817Z,86.15
2018-05-25T05:49:21.922Z,85.77
2018-05-25T05:50:30.791Z,86.25
2018-05-25T05:51:39.947Z,85.58
2018-05-25T05:52:48.792Z,86.44
2018-05-25T05:53:57.655Z,86.05
2018-05-25T05:55:06.567Z,85.96
2018-05-25T05:56:15.433Z,85.38
2018-05-25T05:57:24.295Z,85.38
2018-05-25T05:58:33.738Z,85.77
2018-05-25T05:59:42.577Z,85.48
2018-05-25T06:00:51.591Z,85.86
2018-05-25T06:02:00.474Z,84.81
2018-05-25T06:03:09.594Z,85.24
2018-05-25T06:04:18.461Z,85.33
2018-05-25T06:05:27.332Z,84.37
2018-05-25T06:06:36.199Z,84.47
2018-05-25T06:07:45.913Z,84.47
2018-05-25T06:08:54.774Z,84.08
2018-05-25T06:10:03.642Z,83.6
2018-05-25T06:11:13.069Z,83.8
2018-05-25T06:12:21.984Z,84.08
2018-05-25T06:13:30.795Z,83.6
2018-05-25T06:14:39.657Z,83.6
2018-05-25T06:15:48.800Z,84.66
2018-05-25T06:16:57.659Z,83.7
2018-05-25T06:18:06.631Z,83.93
2018-05-25T06:19:15.500Z,84.12
2018-05-25T06:20:24.648Z,83.54
2018-05-25T06:21:33.507Z,83.64
2018-05-25T06:22:42.375Z,82.87
2018-05-25T06:23:51.342Z,82.59
2018-05-25T06:25:00.762Z,82.87
2018-05-25T06:26:09.626Z,83.07
2018-05-25T06:27:18.543Z,83.16
2018-05-25T06:28:27.400Z,83.74
2018-05-25T06:29:36.417Z,82.82
2018-05-25T06:30:45.284Z,82.34
2018-05-25T06:31:54.423Z,82.73
2018-05-25T06:33:03.287Z,82.53
2018-05-25T06:34:12.151Z,82.92
2018-05-25T06:35:21.266Z,82.43
2018-05-25T06:36:30.406Z,82.43
2018-05-25T06:37:39.549Z,82.34
2018-05-25T06:38:48.693Z,82.34
2018-05-25T06:39:57.555Z,82.73
2018-05-25T06:41:06.775Z,82.92
2018-05-25T06:42:15.654Z,82.92
2018-05-25T06:43:24.516Z,82.34
2018-05-25T06:44:33.384Z,81.86
2018-05-25T06:45:42.815Z,82.34
2018-05-25T06:46:52.011Z,81.32
2018-05-25T06:48:00.876Z,81.42
2018-05-25T06:49:09.741Z,81.42
2018-05-25T06:50:18.606Z,81.71
2018-05-25T06:51:27.471Z,81.32
2018-05-25T06:52:36.484Z,80.65
2018-05-25T06:53:45.348Z,80.65
2018-05-25T06:54:54.214Z,80.84
2018-05-25T06:56:03.081Z,80.21
2018-05-25T06:57:11.944Z,80.21
2018-05-25T06:58:21.259Z,80.79
2018-05-25T06:59:30.126Z,80.69
2018-05-25T07:00:39.276Z,81.17
2018-05-25T07:01:48.132Z,81.17
2018-05-25T07:02:57.276Z,80.69
2018-05-25T07:04:06.482Z,79.53
2018-05-25T07:05:15.902Z,79.92
2018-05-25T07:06:25.322Z,79.48
2018-05-25T07:07:34.184Z,79.77
2018-05-25T07:08:43.050Z,79.28
2018-05-25T07:09:52.297Z,78.71
2018-05-25T07:11:01.162Z,78.23
2018-05-25T07:12:10.303Z,78.13
2018-05-25T07:13:19.174Z,77.94
2018-05-25T07:14:28.036Z,77.75
2018-05-25T07:15:36.951Z,77.75
2018-05-25T07:16:45.814Z,78.03
2018-05-25T07:17:54.964Z,77.56
2018-05-25T07:19:03.827Z,77.21
2018-05-25T07:20:12.693Z,77.11
2018-05-25T07:21:21.883Z,77.5
2018-05-25T07:22:30.773Z,77.11
2018-05-25T07:23:39.610Z,78.27
2018-05-25T07:24:48.474Z,77.4
2018-05-25T07:25:57.616Z,77.21
2018-05-25T07:27:07.179Z,76.34
2018-05-25T07:28:16.319Z,76.09
2018-05-25T07:29:25.182Z,76.28
2018-05-25T07:30:34.046Z,75.42
2018-05-25T07:31:42.909Z,75.9
2018-05-25T07:32:52.501Z,76.28
2018-05-25T07:34:01.645Z,74.65
2018-05-25T07:35:11.069Z,75.42
2018-05-25T07:36:19.935Z,74.65
2018-05-25T07:37:28.798Z,74.36
2018-05-25T07:38:37.812Z,74.55
2018-05-25T07:39:46.680Z,72.66
2018-05-25T07:40:55.542Z,72.56
2018-05-25T07:42:04.687Z,72.18
2018-05-25T07:43:13.553Z,72.95
2018-05-25T07:44:22.790Z,72.66
2018-05-25T07:45:31.658Z,72.08
2018-05-25T07:46:40.796Z,71.83
2018-05-25T07:47:49.661Z,72.02
2018-05-25T07:48:58.930Z,72.02
2018-05-25T07:50:07.798Z,72.12
2018-05-25T07:51:16.941Z,72.12
2018-05-25T07:52:25.803Z,71.44
2018-05-25T07:53:34.669Z,72.02
2018-05-25T07:54:43.813Z,71.64
2018-05-25T07:55:53.164Z,71.25
2018-05-25T07:57:02.025Z,71.83
2018-05-25T07:58:11.169Z,72.89
2018-05-25T07:59:20.032Z,73.57
2018-05-25T08:00:28.895Z,72.41
2018-05-25T08:01:37.810Z,70.76
2018-05-25T08:02:46.674Z,70.03
2018-05-25T08:03:55.539Z,70.42
2018-05-25T08:05:04.402Z,69.07
2018-05-25T08:06:13.267Z,68.49
2018-05-25T08:07:22.615Z,69.16
2018-05-25T08:08:31.474Z,69.74
2018-05-25T08:09:40.346Z,68.91
2018-05-25T08:10:49.494Z,68.52
2018-05-25T08:11:58.415Z,68.71
2018-05-25T08:13:07.328Z,68.33
2018-05-25T08:14:16.192Z,67.07
2018-05-25T08:15:25.057Z,67.46
2018-05-25T08:16:33.926Z,66.88
2018-05-25T08:17:42.786Z,67.17
2018-05-25T08:18:52.282Z,66.3
2018-05-25T08:20:01.425Z,66.49
2018-05-25T08:21:10.289Z,66.97
2018-05-25T08:22:19.155Z,66.72
2018-05-25T08:23:28.020Z,65.56
2018-05-25T08:24:37.033Z,65.95
2018-05-25T08:25:45.896Z,66.43
2018-05-25T08:26:54.767Z,65.66
2018-05-25T08:28:03.628Z,65.95
2018-05-25T08:29:12.777Z,66.24
2018-05-25T08:30:22.078Z,66.53
2018-05-25T08:31:31.499Z,65.27
2018-05-25T08:32:40.651Z,64.59
2018-05-25T08:33:49.794Z,64.4
2018-05-25T08:34:58.658Z,65.08
2018-05-25T08:36:07.952Z,64.34
2018-05-25T08:37:17.098Z,64.43
2018-05-25T08:38:25.960Z,64.14
2018-05-25T08:39:34.827Z,65.11
2018-05-25T08:40:43.693Z,64.24
2018-05-25T08:41:52.914Z,64.05
2018-05-25T08:43:02.057Z,64.53
2018-05-25T08:44:10.923Z,64.24
2018-05-25T08:45:19.790Z,64.37
2018-05-25T08:46:28.661Z,64.34
2018-05-25T08:47:37.523Z,63.6
2018-05-25T08:48:46.391Z,63.21
2018-05-25T08:49:55.256Z,62.63
2018-05-25T08:51:04.125Z,63.02
2018-05-25T08:52:12.992Z,63.98
2018-05-25T08:53:22.008Z,62.24
2018-05-25T08:54:30.874Z,62.63
2018-05-25T08:55:40.295Z,61.08
2018-05-25T08:56:49.162Z,60.99
2018-05-25T08:57:58.029Z,61.08
2018-05-25T08:59:07.043Z,61.6
2018-05-25T09:00:15.911Z,61.21
2018-05-25T09:01:24.779Z,61.3
2018-05-25T09:02:33.924Z,61.21
2018-05-25T09:03:42.793Z,60.44
2018-05-25T09:04:52.037Z,59.69
2018-05-25T09:06:01.183Z,59.79
2018-05-25T09:07:10.049Z,59.69
2018-05-25T09:08:18.912Z,60.95
2018-05-25T09:09:27.777Z,61.3
2018-05-25T09:10:37.255Z,60.24
2018-05-25T09:11:46.119Z,59.79
2018-05-25T09:12:54.986Z,59.98
2018-05-25T09:14:03.851Z,58.72
2018-05-25T09:15:12.718Z,58.44
2018-05-25T09:16:21.585Z,58.63
2018-05-25T09:17:30.452Z,59.5
2018-05-25T09:18:39.322Z,58.34
2018-05-25T09:19:48.188Z,57.37
2018-05-25T09:20:57.057Z,57.86
2018-05-25T09:22:05.976Z,57.56
2018-05-25T09:23:14.843Z,57.08
2018-05-25T09:24:23.712Z,57.18
2018-05-25T09:25:32.579Z,57.56
2018-05-25T09:26:41.448Z,56.82
2018-05-25T09:27:50.466Z,56.5
2018-05-25T09:28:59.335Z,57.28
2018-05-25T09:30:08.203Z,57.18
2018-05-25T09:31:17.628Z,55.82
2018-05-25T09:32:26.771Z,56.6
2018-05-25T09:33:36.166Z,54.85
2018-05-25T09:34:45.313Z,55.66
2018-05-25T09:35:54.178Z,56.43
2018-05-25T09:37:03.043Z,55.76
2018-05-25T09:38:11.909Z,57.4
2018-05-25T09:39:21.026Z,57.23
2018-05-25T09:40:30.174Z,57.53
2018-05-25T09:41:39.035Z,55.98
2018-05-25T09:42:47.904Z,55.78
2018-05-25T09:43:56.771Z,56.24
2018-05-25T09:45:05.688Z,57.11
2018-05-25T09:46:14.557Z,56.43
2018-05-25T09:47:23.702Z,55.36
2018-05-25T09:48:32.847Z,55.3
2018-05-25T09:49:41.717Z,55.78
2018-05-25T09:50:50.586Z,55.4
2018-05-25T09:51:59.452Z,55.78
2018-05-25T09:53:08.317Z,55.68
2018-05-25T09:54:17.183Z,56.46
2018-05-25T09:55:26.050Z,55.78
2018-05-25T09:56:34.971Z,54.71
2018-05-25T09:57:44.118Z,55.1
2018-05-25T09:58:53.262Z,55.98
2018-05-25T10:00:02.686Z,55.78
2018-05-25T10:01:11.832Z,56.46
2018-05-25T10:02:21.049Z,54.23
2018-05-25T10:03:29.915Z,53.39
2018-05-25T10:04:38.782Z,54.55
2018-05-25T10:05:47.650Z,54.16
2018-05-25T10:06:56.528Z,52.8
2018-05-25T10:08:05.536Z,52.03
2018-05-25T10:09:14.403Z,52.32
2018-05-25T10:10:23.270Z,51.45
2018-05-25T10:11:32.137Z,52.71
2018-05-25T10:12:41.006Z,51.16
2018-05-25T10:13:50.203Z,51.84
2018-05-25T10:14:59.064Z,50.96
2018-05-25T10:16:07.932Z,51.76
2018-05-25T10:17:16.804Z,49.73
2018-05-25T10:18:25.670Z,49.44
2018-05-25T10:19:34.886Z,49.92
2018-05-25T10:20:43.754Z,50.79
2018-05-25T10:21:52.621Z,50.5
2018-05-25T10:23:01.769Z,51.57
2018-05-25T10:24:10.640Z,51.67
2018-05-25T10:25:19.934Z,51.28
2018-05-25T10:26:28.803Z,51.47
2018-05-25T10:27:37.673Z,50.99
2018-05-25T10:28:46.867Z,50.12
2018-05-25T10:29:56.076Z,49.07
2018-05-25T10:31:05.376Z,49.85
2018-05-25T10:32:14.242Z,50.53
2018-05-25T10:33:23.109Z,50.43
2018-05-25T10:34:31.979Z,49.75
2018-05-25T10:35:40.849Z,49.27
2018-05-25T10:36:50.043Z,48.88
2018-05-25T10:37:58.908Z,50.14
2018-05-25T10:39:07.773Z,49.56
2018-05-25T10:40:16.645Z,50.14
2018-05-25T10:41:25.512Z,48.97
2018-05-25T10:42:34.532Z,47.42
2018-05-25T10:43:43.407Z,47.81
2018-05-25T10:44:52.270Z,48.3
2018-05-25T10:46:01.136Z,48.52
2018-05-25T10:47:10.004Z,49.1
2018-05-25T10:48:19.218Z,47.74
2018-05-25T10:49:28.086Z,47.93
2018-05-25T10:50:36.956Z,47.72
2018-05-25T10:51:45.825Z,48.52
2018-05-25T10:52:54.694Z,47.93
2018-05-25T10:54:03.763Z,48.9
2018-05-25T10:55:12.912Z,48.42
2018-05-25T10:56:21.781Z,48.32
2018-05-25T10:57:30.648Z,47.93
2018-05-25T10:58:39.515Z,47.93
2018-05-25T10:59:48.383Z,48.32
2018-05-25T11:00:57.252Z,47.35
2018-05-25T11:02:06.124Z,47.25
2018-05-25T11:03:15.281Z,48.8
2018-05-25T11:04:24.427Z,47.76
2018-05-25T11:05:33.673Z,48.15
2018-05-25T11:06:42.540Z,48.05
2018-05-25T11:07:51.410Z,47.18
2018-05-25T11:09:00.272Z,46.6
2018-05-25T11:10:09.139Z,46.5
2018-05-25T11:11:18.163Z,45.65
2018-05-25T11:12:27.305Z,46.14
2018-05-25T11:13:36.173Z,45.55
2018-05-25T11:14:45.040Z,45.84
2018-05-25T11:15:53.908Z,45.65
2018-05-25T11:17:02.875Z,46.04
2018-05-25T11:18:12.022Z,46.23
2018-05-25T11:19:20.980Z,45.65
2018-05-25T11:20:30.373Z,45.36
2018-05-25T11:21:39.244Z,44.68
2018-05-25T11:22:48.740Z,45.65
2018-05-25T11:23:57.608Z,45.45
2018-05-25T11:25:06.762Z,45.36
2018-05-25T11:26:15.907Z,44.19
2018-05-25T11:27:24.775Z,43.54
2018-05-25T11:28:33.696Z,43.15
2018-05-25T11:29:42.564Z,43.92
2018-05-25T11:30:51.710Z,44.31
2018-05-25T11:32:00.581Z,44.12
2018-05-25T11:33:09.454Z,43.92
2018-05-25T11:34:18.525Z,44.31
2018-05-25T11:35:27.669Z,43.82
2018-05-25T11:36:36.538Z,43.34
2018-05-25T11:37:45.408Z,42.95
2018-05-25T11:38:54.565Z,42.95
2018-05-25T11:40:03.530Z,42.58
2018-05-25T11:41:12.400Z,43.16
2018-05-25T11:42:21.268Z,43.65
2018-05-25T11:43:30.137Z,43.55
2018-05-25T11:44:39.006Z,43.85
2018-05-25T11:45:48.303Z,42.11
2018-05-25T11:46:57.448Z,42.5
2018-05-25T11:48:06.319Z,43.19
2018-05-25T11:49:15.937Z,42.9
2018-05-25T11:50:25.090Z,42.5
2018-05-25T11:51:34.688Z,42.5
2018-05-25T11:52:44.386Z,42.11
2018-05-25T11:53:53.255Z,41.14
2018-05-25T11:55:02.125Z,40.68
2018-05-25T11:56:10.998Z,40.68
2018-05-25T11:57:20.319Z,40.88
2018-05-25T11:58:29.466Z,40.8
2018-05-25T11:59:38.340Z,41.75
2018-05-25T12:00:47.490Z,41.48
2018-05-25T12:01:56.637Z,39.53
2018-05-25T12:03:06.038Z,39.24
2018-05-25T12:04:14.909Z,40.6
2018-05-25T12:05:23.785Z,41.09
2018-05-25T12:06:32.670Z,40.21
2018-05-25T12:07:41.865Z,40.6
2018-05-25T12:08:50.837Z,39.34
2018-05-25T12:09:59.712Z,39.16
2018-05-25T12:11:08.583Z,40.33
2018-05-25T12:12:17.457Z,40.62
2018-05-25T12:13:26.610Z,39.75
2018-05-25T12:14:35.585Z,39.55
2018-05-25T12:15:44.460Z,39.36
2018-05-25T12:16:53.345Z,40.33
2018-05-25T12:18:02.496Z,39.84
2018-05-25T12:19:11.926Z,39.39
2018-05-25T12:20:20.950Z,39
2018-05-25T12:21:29.825Z,38.73
2018-05-25T12:22:38.702Z,39.22
2018-05-25T12:23:47.578Z,38.63
2018-05-25T12:24:56.457Z,39.22
2018-05-25T12:26:05.342Z,39.78
2018-05-25T12:27:14.208Z,39.41
2018-05-25T12:28:23.083Z,39.33
2018-05-25T12:29:31.958Z,38.18
2018-05-25T12:30:40.836Z,37.6
2018-05-25T12:31:49.766Z,37.6
2018-05-25T12:32:58.643Z,36.91
2018-05-25T12:34:07.526Z,37.01
2018-05-25T12:35:16.730Z,35.75
2018-05-25T12:36:25.611Z,36.54
2018-05-25T12:37:34.744Z,35.46
2018-05-25T12:38:43.911Z,35.38
2018-05-25T12:39:52.789Z,35.77
2018-05-25T12:41:01.959Z,35.19
2018-05-25T12:42:10.857Z,35.55
2018-05-25T12:43:20.444Z,35.74
2018-05-25T12:44:29.323Z,35.55
2018-05-25T12:45:38.210Z,35.85
2018-05-25T12:46:47.087Z,35.17
2018-05-25T12:47:55.970Z,34.97
2018-05-25T12:49:05.002Z,34.99
2018-05-25T12:50:13.883Z,34.89
2018-05-25T12:51:23.045Z,33.9
2018-05-25T12:52:31.929Z,34.88
2018-05-25T12:53:40.809Z,34.89
2018-05-25T12:54:50.219Z,34.11
2018-05-25T12:55:59.102Z,34.21
2018-05-25T12:57:07.984Z,34.11
2018-05-25T12:58:17.139Z,33.64
2018-05-25T12:59:26.020Z,34.91
2018-05-25T13:00:35.050Z,35.71
2018-05-25T13:01:43.930Z,34.8
2018-05-25T13:02:53.373Z,34.21
2018-05-25T13:04:02.529Z,34.89
2018-05-25T13:05:11.410Z,34.62
2018-05-25T13:06:20.768Z,35.01
2018-05-25T13:07:29.930Z,34.89
2018-05-25T13:08:38.811Z,34.6
2018-05-25T13:09:47.970Z,34.48
2018-05-25T13:10:56.854Z,34.11
2018-05-25T13:12:06.062Z,34.6
2018-05-25T13:13:14.944Z,34.29
2018-05-25T13:14:24.386Z,34.11
2018-05-25T13:15:33.267Z,34.29
2018-05-25T13:16:42.148Z,33.9
2018-05-25T13:17:51.180Z,33.72
2018-05-25T13:19:00.335Z,33.45
2018-05-25T13:20:09.216Z,34.31
2018-05-25T13:21:18.099Z,33.15
2018-05-25T13:22:27.550Z,33.82
2018-05-25T13:23:36.676Z,34.52
2018-05-25T13:24:45.552Z,34.03
2018-05-25T13:25:54.998Z,32.39
2018-05-25T13:27:04.431Z,32.19
2018-05-25T13:28:13.316Z,32.39
2018-05-25T13:29:22.928Z,31.9
2018-05-25T13:30:31.809Z,31.91
2018-05-25T13:31:40.689Z,31.71
2018-05-25T13:32:49.579Z,31.52
2018-05-25T13:33:58.455Z,32.1
2018-05-25T13:35:07.386Z,33.2
2018-05-25T13:36:16.272Z,31.74
2018-05-25T13:37:25.153Z,31.65
2018-05-25T13:38:34.317Z,31.67
2018-05-25T13:39:43.202Z,32.03
2018-05-25T13:40:52.417Z,32.03
2018-05-25T13:42:01.572Z,30.67
2018-05-25T13:43:10.732Z,30.77
2018-05-25T13:44:19.614Z,31.84
2018-05-25T13:45:28.506Z,31.74
2018-05-25T13:46:37.382Z,32.64
2018-05-25T13:47:46.266Z,32.25
2018-05-25T13:48:55.430Z,30.78
2018-05-25T13:50:04.314Z,32.07
2018-05-25T13:51:13.203Z,32.07
2018-05-25T13:52:22.190Z,31.3
2018-05-25T13:53:31.072Z,31.02
2018-05-25T13:54:39.958Z,31.02
2018-05-25T13:55:48.843Z,29.44
2018-05-25T13:56:57.728Z,30.22
2018-05-25T13:58:06.665Z,30.22
2018-05-25T13:59:15.824Z,30.62
2018-05-25T14:00:24.982Z,31.37
2018-05-25T14:01:34.149Z,31.45
2018-05-25T14:02:43.035Z,31.81
2018-05-25T14:03:52.068Z,32.56
2018-05-25T14:05:01.228Z,32.87
2018-05-25T14:06:10.383Z,32.58
2018-05-25T14:07:19.261Z,33.64
2018-05-25T14:08:28.150Z,33.72
2018-05-25T14:09:37.022Z,34.19
2018-05-25T14:10:45.902Z,34.97
2018-05-25T14:11:55.061Z,34.8
2018-05-25T14:13:03.938Z,34.29
2018-05-25T14:14:13.091Z,35.06
2018-05-25T14:15:22.072Z,34.67
2018-05-25T14:16:30.945Z,35.16
2018-05-25T14:17:39.821Z,35.92
2018-05-25T14:18:48.978Z,35.31
2018-05-25T14:19:57.859Z,35.71
2018-05-25T14:21:07.073Z,35.41
2018-05-25T14:22:16.504Z,35.71
2018-05-25T14:23:25.485Z,35.9
2018-05-25T14:24:34.640Z,35.98
2018-05-25T14:25:43.794Z,35.96
2018-05-25T14:26:53.295Z,36.25
2018-05-25T14:28:02.167Z,36.16
2018-05-25T14:29:11.039Z,35.96
2018-05-25T14:30:19.909Z,35.59
2018-05-25T14:31:29.114Z,35.02
2018-05-25T14:32:38.390Z,35.64
2018-05-25T14:33:47.278Z,34.96
2018-05-25T14:34:56.242Z,36.04
2018-05-25T14:36:05.421Z,35.74
2018-05-25T14:37:14.320Z,36.51
2018-05-25T14:38:23.249Z,35.71
2018-05-25T14:39:32.123Z,35.9
2018-05-25T14:40:41.002Z,35.88
2018-05-25T14:41:49.875Z,35.98
2018-05-25T14:42:58.757Z,36.57
2018-05-25T14:44:08.065Z,36.37
2018-05-25T14:45:17.216Z,36.08
2018-05-25T14:46:26.095Z,36.25
2018-05-25T14:47:35.246Z,37.33
2018-05-25T14:48:44.125Z,36.45
2018-05-25T14:49:53.048Z,36.18
2018-05-25T14:51:01.921Z,37.43
2018-05-25T14:52:10.797Z,37.43